sensor_id;sensor_type;location;lat;lon;timestamp;temperature;humidity
9537;DHT22;4807;48.024;11.726;2023-04-25T00:02:26;6.00;99.90
9537;DHT22;4807;48.024;11.726;2023-04-25T00:05:36;6.00;99.90
9537;DHT22;4807;48.024;11.726;2023-04-25T00:08:45;6.00;99.90
9537;DHT22;4807;48.024;11.726;2023-04-25T00:11:54;6.10;99.90
9537;DHT22;4807;48.024;11.726;2023-04-25T00:15:02;6.20;99.90
9537;DHT22;4807;48.024;11.726;2023-04-25T00:18:11;6.30;99.90
9537;DHT22;4807;48.024;11.726;2023-04-25T00:21:21;6.30;99.90
9537;DHT22;4807;48.024;11.726;2023-04-25T00:24:31;6.40;99.90
9537;DHT22;4807;48.024;11.726;2023-04-25T00:27:39;6.50;99.90
9537;DHT22;4807;48.024;11.726;2023-04-25T00:30:48;6.50;99.90
9537;DHT22;4807;48.024;11.726;2023-04-25T00:33:56;6.50;99.90
9537;DHT22;4807;48.024;11.726;2023-04-25T00:37:06;6.40;99.90
9537;DHT22;4807;48.024;11.726;2023-04-25T00:40:14;6.50;99.90
9537;DHT22;4807;48.024;11.726;2023-04-25T00:43:23;6.50;99.90
9537;DHT22;4807;48.024;11.726;2023-04-25T00:46:34;6.50;99.90
9537;DHT22;4807;48.024;11.726;2023-04-25T00:49:43;6.50;99.90
9537;DHT22;4807;48.024;11.726;2023-04-25T00:52:53;6.50;99.90
9537;DHT22;4807;48.024;11.726;2023-04-25T00:56:02;6.60;99.90
9537;DHT22;4807;48.024;11.726;2023-04-25T00:59:11;6.60;99.90
9537;DHT22;4807;48.024;11.726;2023-04-25T01:02:19;6.70;99.90
9537;DHT22;4807;48.024;11.726;2023-04-25T01:05:28;6.70;99.90
9537;DHT22;4807;48.024;11.726;2023-04-25T01:08:39;6.70;99.90
9537;DHT22;4807;48.024;11.726;2023-04-25T01:11:47;6.70;99.90
9537;DHT22;4807;48.024;11.726;2023-04-25T01:14:56;5.80;99.90
9537;DHT22;4807;48.024;11.726;2023-04-25T01:18:05;6.50;99.90
9537;DHT22;4807;48.024;11.726;2023-04-25T01:21:15;6.40;99.90
9537;DHT22;4807;48.024;11.726;2023-04-25T01:24:24;6.40;99.90
9537;DHT22;4807;48.024;11.726;2023-04-25T01:27:32;6.40;99.90
9537;DHT22;4807;48.024;11.726;2023-04-25T01:30:41;6.50;99.90
9537;DHT22;4807;48.024;11.726;2023-04-25T01:33:51;6.40;99.90
9537;DHT22;4807;48.024;11.726;2023-04-25T01:37:01;6.40;99.90
9537;DHT22;4807;48.024;11.726;2023-04-25T01:40:10;6.40;99.90
9537;DHT22;4807;48.024;11.726;2023-04-25T01:43:19;6.40;99.90
9537;DHT22;4807;48.024;11.726;2023-04-25T01:46:28;6.40;99.90
9537;DHT22;4807;48.024;11.726;2023-04-25T01:49:36;6.30;99.90
9537;DHT22;4807;48.024;11.726;2023-04-25T01:52:46;6.30;99.90
9537;DHT22;4807;48.024;11.726;2023-04-25T01:55:55;6.20;99.90
9537;DHT22;4807;48.024;11.726;2023-04-25T01:59:06;6.10;99.90
9537;DHT22;4807;48.024;11.726;2023-04-25T02:02:34;5.90;99.90
9537;DHT22;4807;48.024;11.726;2023-04-25T02:05:44;5.70;99.90
9537;DHT22;4807;48.024;11.726;2023-04-25T02:08:54;5.70;99.90
9537;DHT22;4807;48.024;11.726;2023-04-25T02:12:03;5.60;99.90
9537;DHT22;4807;48.024;11.726;2023-04-25T02:15:32;5.40;99.90
9537;DHT22;4807;48.024;11.726;2023-04-25T02:18:53;5.30;99.90
9537;DHT22;4807;48.024;11.726;2023-04-25T02:22:01;5.20;99.90
9537;DHT22;4807;48.024;11.726;2023-04-25T02:25:11;5.20;99.90
9537;DHT22;4807;48.024;11.726;2023-04-25T02:28:20;5.10;99.90
9537;DHT22;4807;48.024;11.726;2023-04-25T02:31:28;5.20;99.90
9537;DHT22;4807;48.024;11.726;2023-04-25T02:34:37;5.10;99.90
9537;DHT22;4807;48.024;11.726;2023-04-25T02:37:46;5.10;99.90
9537;DHT22;4807;48.024;11.726;2023-04-25T02:40:55;5.20;99.90
9537;DHT22;4807;48.024;11.726;2023-04-25T02:44:05;5.30;99.90
9537;DHT22;4807;48.024;11.726;2023-04-25T02:47:13;5.50;99.90
9537;DHT22;4807;48.024;11.726;2023-04-25T02:50:22;5.60;99.90
9537;DHT22;4807;48.024;11.726;2023-04-25T02:53:31;5.70;99.90
9537;DHT22;4807;48.024;11.726;2023-04-25T02:56:40;5.60;99.90
9537;DHT22;4807;48.024;11.726;2023-04-25T02:59:54;5.70;99.90
9537;DHT22;4807;48.024;11.726;2023-04-25T03:03:02;5.80;99.90
9537;DHT22;4807;48.024;11.726;2023-04-25T03:06:10;5.70;99.90
9537;DHT22;4807;48.024;11.726;2023-04-25T03:09:19;5.80;99.90
9537;DHT22;4807;48.024;11.726;2023-04-25T03:12:29;5.80;99.90
9537;DHT22;4807;48.024;11.726;2023-04-25T03:15:38;5.90;99.90
9537;DHT22;4807;48.024;11.726;2023-04-25T03:18:46;6.00;99.90
9537;DHT22;4807;48.024;11.726;2023-04-25T03:21:56;6.00;99.90
9537;DHT22;4807;48.024;11.726;2023-04-25T03:25:05;6.00;99.90
9537;DHT22;4807;48.024;11.726;2023-04-25T03:28:16;6.00;99.90
9537;DHT22;4807;48.024;11.726;2023-04-25T03:31:24;6.40;99.90
9537;DHT22;4807;48.024;11.726;2023-04-25T03:34:33;6.40;99.90
9537;DHT22;4807;48.024;11.726;2023-04-25T03:37:41;6.30;99.90
9537;DHT22;4807;48.024;11.726;2023-04-25T03:40:57;6.20;99.90
9537;DHT22;4807;48.024;11.726;2023-04-25T03:44:16;6.10;99.90
9537;DHT22;4807;48.024;11.726;2023-04-25T03:47:25;6.00;99.90
9537;DHT22;4807;48.024;11.726;2023-04-25T03:50:35;5.80;99.90
9537;DHT22;4807;48.024;11.726;2023-04-25T03:53:44;5.70;99.90
9537;DHT22;4807;48.024;11.726;2023-04-25T03:57:10;5.60;99.90
9537;DHT22;4807;48.024;11.726;2023-04-25T04:00:20;5.50;99.90
9537;DHT22;4807;48.024;11.726;2023-04-25T04:03:31;5.40;99.90
9537;DHT22;4807;48.024;11.726;2023-04-25T04:06:40;5.40;99.90
9537;DHT22;4807;48.024;11.726;2023-04-25T04:09:54;5.30;99.90
9537;DHT22;4807;48.024;11.726;2023-04-25T04:13:08;5.30;99.90
9537;DHT22;4807;48.024;11.726;2023-04-25T04:16:17;4.70;99.90
9537;DHT22;4807;48.024;11.726;2023-04-25T04:19:27;5.30;99.90
9537;DHT22;4807;48.024;11.726;2023-04-25T04:22:44;5.20;99.90
9537;DHT22;4807;48.024;11.726;2023-04-25T04:25:55;5.10;99.90
9537;DHT22;4807;48.024;11.726;2023-04-25T04:29:19;5.10;99.90
9537;DHT22;4807;48.024;11.726;2023-04-25T04:32:42;5.10;99.90
9537;DHT22;4807;48.024;11.726;2023-04-25T04:35:51;5.20;99.90
9537;DHT22;4807;48.024;11.726;2023-04-25T04:39:04;5.30;99.90
9537;DHT22;4807;48.024;11.726;2023-04-25T04:42:22;5.30;99.90
9537;DHT22;4807;48.024;11.726;2023-04-25T04:46:00;5.30;99.90
9537;DHT22;4807;48.024;11.726;2023-04-25T04:49:17;5.50;99.90
9537;DHT22;4807;48.024;11.726;2023-04-25T04:52:43;5.50;99.90
9537;DHT22;4807;48.024;11.726;2023-04-25T04:56:27;5.60;99.90
9537;DHT22;4807;48.024;11.726;2023-04-25T04:59:53;5.50;99.90
9537;DHT22;4807;48.024;11.726;2023-04-25T05:03:25;5.60;99.90
9537;DHT22;4807;48.024;11.726;2023-04-25T05:06:54;5.60;99.90
9537;DHT22;4807;48.024;11.726;2023-04-25T05:10:19;5.60;99.90
9537;DHT22;4807;48.024;11.726;2023-04-25T05:13:52;5.70;99.90
9537;DHT22;4807;48.024;11.726;2023-04-25T05:17:19;5.80;99.90
9537;DHT22;4807;48.024;11.726;2023-04-25T05:20:56;5.80;99.90
9537;DHT22;4807;48.024;11.726;2023-04-25T05:24:26;6.00;99.90
9537;DHT22;4807;48.024;11.726;2023-04-25T05:27:37;6.30;99.90
9537;DHT22;4807;48.024;11.726;2023-04-25T05:31:01;6.50;99.90
9537;DHT22;4807;48.024;11.726;2023-04-25T05:34:22;6.70;99.90
9537;DHT22;4807;48.024;11.726;2023-04-25T05:37:41;6.90;99.90
9537;DHT22;4807;48.024;11.726;2023-04-25T05:40:54;7.30;99.90
9537;DHT22;4807;48.024;11.726;2023-04-25T05:44:23;7.30;99.90
9537;DHT22;4807;48.024;11.726;2023-04-25T05:47:58;7.70;99.90
9537;DHT22;4807;48.024;11.726;2023-04-25T05:51:36;8.00;99.90
9537;DHT22;4807;48.024;11.726;2023-04-25T05:55:12;8.00;99.90
9537;DHT22;4807;48.024;11.726;2023-04-25T05:58:23;8.00;99.90
9537;DHT22;4807;48.024;11.726;2023-04-25T06:01:36;7.90;99.90
9537;DHT22;4807;48.024;11.726;2023-04-25T06:04:44;7.70;99.90
9537;DHT22;4807;48.024;11.726;2023-04-25T06:07:53;7.70;99.90
9537;DHT22;4807;48.024;11.726;2023-04-25T06:11:01;8.40;99.90
9537;DHT22;4807;48.024;11.726;2023-04-25T06:14:11;10.00;99.90
9537;DHT22;4807;48.024;11.726;2023-04-25T06:17:25;10.40;99.10
9537;DHT22;4807;48.024;11.726;2023-04-25T06:20:33;9.80;99.90
9537;DHT22;4807;48.024;11.726;2023-04-25T06:23:42;10.60;99.90
9537;DHT22;4807;48.024;11.726;2023-04-25T06:26:55;12.70;96.90
9537;DHT22;4807;48.024;11.726;2023-04-25T06:30:06;13.50;92.40
9537;DHT22;4807;48.024;11.726;2023-04-25T06:33:15;12.20;93.80
9537;DHT22;4807;48.024;11.726;2023-04-25T06:36:25;10.50;95.50
9537;DHT22;4807;48.024;11.726;2023-04-25T06:39:41;8.60;99.90
9537;DHT22;4807;48.024;11.726;2023-04-25T06:42:50;8.30;99.90
9537;DHT22;4807;48.024;11.726;2023-04-25T06:46:18;8.40;99.90
9537;DHT22;4807;48.024;11.726;2023-04-25T06:49:29;8.90;99.90
9537;DHT22;4807;48.024;11.726;2023-04-25T06:52:37;9.30;99.90
9537;DHT22;4807;48.024;11.726;2023-04-25T06:55:46;8.90;99.90
9537;DHT22;4807;48.024;11.726;2023-04-25T06:59:00;8.80;99.90
9537;DHT22;4807;48.024;11.726;2023-04-25T07:02:12;9.10;99.90
9537;DHT22;4807;48.024;11.726;2023-04-25T07:05:22;9.60;99.90
9537;DHT22;4807;48.024;11.726;2023-04-25T07:08:31;9.50;99.90
9537;DHT22;4807;48.024;11.726;2023-04-25T07:11:41;9.30;99.90
9537;DHT22;4807;48.024;11.726;2023-04-25T07:14:50;9.10;99.90
9537;DHT22;4807;48.024;11.726;2023-04-25T07:17:59;8.70;99.90
9537;DHT22;4807;48.024;11.726;2023-04-25T07:21:08;8.50;99.90
9537;DHT22;4807;48.024;11.726;2023-04-25T07:24:17;8.50;99.90
9537;DHT22;4807;48.024;11.726;2023-04-25T07:27:27;8.40;99.90
9537;DHT22;4807;48.024;11.726;2023-04-25T07:30:42;8.40;99.90
9537;DHT22;4807;48.024;11.726;2023-04-25T07:33:52;8.60;99.90
9537;DHT22;4807;48.024;11.726;2023-04-25T07:37:01;8.80;99.90
9537;DHT22;4807;48.024;11.726;2023-04-25T07:40:18;8.90;99.90
9537;DHT22;4807;48.024;11.726;2023-04-25T07:43:31;9.20;99.90
9537;DHT22;4807;48.024;11.726;2023-04-25T07:46:40;9.90;99.90
9537;DHT22;4807;48.024;11.726;2023-04-25T07:49:50;10.50;98.50
9537;DHT22;4807;48.024;11.726;2023-04-25T07:52:58;10.80;98.30
9537;DHT22;4807;48.024;11.726;2023-04-25T07:56:12;11.00;98.30
9537;DHT22;4807;48.024;11.726;2023-04-25T07:59:24;12.10;95.90
9537;DHT22;4807;48.024;11.726;2023-04-25T08:02:37;12.70;94.70
9537;DHT22;4807;48.024;11.726;2023-04-25T08:05:51;12.70;93.30
9537;DHT22;4807;48.024;11.726;2023-04-25T08:09:00;13.60;92.80
9537;DHT22;4807;48.024;11.726;2023-04-25T08:12:17;13.70;90.60
9537;DHT22;4807;48.024;11.726;2023-04-25T08:15:29;13.10;91.60
9537;DHT22;4807;48.024;11.726;2023-04-25T08:18:38;12.00;92.60
9537;DHT22;4807;48.024;11.726;2023-04-25T08:21:49;11.30;94.70
9537;DHT22;4807;48.024;11.726;2023-04-25T08:25:05;11.90;91.30
9537;DHT22;4807;48.024;11.726;2023-04-25T08:28:14;11.10;93.70
9537;DHT22;4807;48.024;11.726;2023-04-25T08:31:24;11.50;90.50
9537;DHT22;4807;48.024;11.726;2023-04-25T08:34:39;11.50;90.90
9537;DHT22;4807;48.024;11.726;2023-04-25T08:37:50;10.60;89.60
9537;DHT22;4807;48.024;11.726;2023-04-25T08:41:00;13.30;88.50
9537;DHT22;4807;48.024;11.726;2023-04-25T08:44:10;12.30;90.40
9537;DHT22;4807;48.024;11.726;2023-04-25T08:47:22;13.30;90.60
9537;DHT22;4807;48.024;11.726;2023-04-25T08:50:35;14.00;84.40
9537;DHT22;4807;48.024;11.726;2023-04-25T08:53:49;13.50;84.30
9537;DHT22;4807;48.024;11.726;2023-04-25T08:57:19;12.30;88.30
9537;DHT22;4807;48.024;11.726;2023-04-25T09:00:30;11.40;90.50
9537;DHT22;4807;48.024;11.726;2023-04-25T09:03:39;11.00;90.50
9537;DHT22;4807;48.024;11.726;2023-04-25T09:06:51;11.10;91.10
9537;DHT22;4807;48.024;11.726;2023-04-25T09:10:02;10.80;91.30
9537;DHT22;4807;48.024;11.726;2023-04-25T09:13:17;10.50;92.00
9537;DHT22;4807;48.024;11.726;2023-04-25T09:17:00;10.80;91.80
9537;DHT22;4807;48.024;11.726;2023-04-25T09:20:23;12.20;91.50
9537;DHT22;4807;48.024;11.726;2023-04-25T09:23:39;13.30;91.20
9537;DHT22;4807;48.024;11.726;2023-04-25T09:26:50;13.80;87.50
9537;DHT22;4807;48.024;11.726;2023-04-25T09:29:59;13.30;84.40
9537;DHT22;4807;48.024;11.726;2023-04-25T09:33:20;12.60;89.10
9537;DHT22;4807;48.024;11.726;2023-04-25T09:36:39;12.10;91.50
9537;DHT22;4807;48.024;11.726;2023-04-25T09:40:13;11.70;92.60
9537;DHT22;4807;48.024;11.726;2023-04-25T09:43:36;12.40;94.80
9537;DHT22;4807;48.024;11.726;2023-04-25T09:46:49;12.80;91.00
9537;DHT22;4807;48.024;11.726;2023-04-25T09:50:15;12.60;89.90
9537;DHT22;4807;48.024;11.726;2023-04-25T09:53:31;12.40;90.30
9537;DHT22;4807;48.024;11.726;2023-04-25T09:56:52;11.70;93.00
9537;DHT22;4807;48.024;11.726;2023-04-25T10:00:03;10.90;95.20
9537;DHT22;4807;48.024;11.726;2023-04-25T10:03:23;10.60;96.00
9537;DHT22;4807;48.024;11.726;2023-04-25T10:06:48;10.60;96.70
9537;DHT22;4807;48.024;11.726;2023-04-25T10:10:02;11.00;96.30
9537;DHT22;4807;48.024;11.726;2023-04-25T10:13:12;11.80;95.70
9537;DHT22;4807;48.024;11.726;2023-04-25T10:16:24;12.20;95.90
9537;DHT22;4807;48.024;11.726;2023-04-25T10:19:34;13.30;95.70
9537;DHT22;4807;48.024;11.726;2023-04-25T10:22:44;14.40;90.90
9537;DHT22;4807;48.024;11.726;2023-04-25T10:25:55;14.40;92.60
9537;DHT22;4807;48.024;11.726;2023-04-25T10:29:05;14.50;89.90
9537;DHT22;4807;48.024;11.726;2023-04-25T10:32:14;13.80;86.40
9537;DHT22;4807;48.024;11.726;2023-04-25T10:35:26;13.50;85.40
9537;DHT22;4807;48.024;11.726;2023-04-25T10:38:36;13.10;82.70
9537;DHT22;4807;48.024;11.726;2023-04-25T10:41:47;12.90;84.00
9537;DHT22;4807;48.024;11.726;2023-04-25T10:45:04;12.90;84.30
9537;DHT22;4807;48.024;11.726;2023-04-25T10:48:26;12.60;82.50
9537;DHT22;4807;48.024;11.726;2023-04-25T10:51:36;13.10;83.90
9537;DHT22;4807;48.024;11.726;2023-04-25T10:55:04;13.30;87.20
9537;DHT22;4807;48.024;11.726;2023-04-25T10:58:13;13.60;83.30
9537;DHT22;4807;48.024;11.726;2023-04-25T11:01:25;14.30;84.20
9537;DHT22;4807;48.024;11.726;2023-04-25T11:04:35;14.30;83.80
9537;DHT22;4807;48.024;11.726;2023-04-25T11:07:50;14.10;82.80
9537;DHT22;4807;48.024;11.726;2023-04-25T11:11:13;11.60;84.30
9537;DHT22;4807;48.024;11.726;2023-04-25T11:14:22;11.60;85.00
9537;DHT22;4807;48.024;11.726;2023-04-25T11:17:31;10.80;90.30
9537;DHT22;4807;48.024;11.726;2023-04-25T11:20:43;10.20;90.90
9537;DHT22;4807;48.024;11.726;2023-04-25T11:23:52;10.10;91.80
9537;DHT22;4807;48.024;11.726;2023-04-25T11:27:03;10.10;93.10
9537;DHT22;4807;48.024;11.726;2023-04-25T11:30:13;10.00;93.60
9537;DHT22;4807;48.024;11.726;2023-04-25T11:33:23;9.50;97.00
9537;DHT22;4807;48.024;11.726;2023-04-25T11:36:37;9.20;97.70
9537;DHT22;4807;48.024;11.726;2023-04-25T11:39:47;8.60;98.60
9537;DHT22;4807;48.024;11.726;2023-04-25T11:42:55;7.90;99.90
9537;DHT22;4807;48.024;11.726;2023-04-25T11:46:07;7.80;99.90
9537;DHT22;4807;48.024;11.726;2023-04-25T11:49:16;7.60;99.90
9537;DHT22;4807;48.024;11.726;2023-04-25T11:52:35;7.10;99.90
9537;DHT22;4807;48.024;11.726;2023-04-25T11:55:47;7.00;99.90
9537;DHT22;4807;48.024;11.726;2023-04-25T11:58:58;6.90;99.90
9537;DHT22;4807;48.024;11.726;2023-04-25T12:02:09;9.20;99.90
9537;DHT22;4807;48.024;11.726;2023-04-25T12:05:18;7.00;99.90
9537;DHT22;4807;48.024;11.726;2023-04-25T12:08:59;7.10;99.90
9537;DHT22;4807;48.024;11.726;2023-04-25T12:12:09;7.30;99.90
9537;DHT22;4807;48.024;11.726;2023-04-25T12:15:22;7.40;99.90
9537;DHT22;4807;48.024;11.726;2023-04-25T12:18:31;7.60;99.90
9537;DHT22;4807;48.024;11.726;2023-04-25T12:21:44;7.80;99.90
9537;DHT22;4807;48.024;11.726;2023-04-25T12:25:06;7.80;99.90
9537;DHT22;4807;48.024;11.726;2023-04-25T12:28:15;8.30;99.90
9537;DHT22;4807;48.024;11.726;2023-04-25T12:31:26;8.80;99.90
9537;DHT22;4807;48.024;11.726;2023-04-25T12:34:36;8.80;99.90
9537;DHT22;4807;48.024;11.726;2023-04-25T12:37:45;9.10;99.90
9537;DHT22;4807;48.024;11.726;2023-04-25T12:40:55;9.40;99.90
9537;DHT22;4807;48.024;11.726;2023-04-25T12:44:03;9.70;99.90
9537;DHT22;4807;48.024;11.726;2023-04-25T12:47:12;10.10;99.90
9537;DHT22;4807;48.024;11.726;2023-04-25T12:50:20;10.30;99.90
9537;DHT22;4807;48.024;11.726;2023-04-25T12:53:28;10.40;99.90
9537;DHT22;4807;48.024;11.726;2023-04-25T12:56:40;10.80;99.90
9537;DHT22;4807;48.024;11.726;2023-04-25T12:59:49;10.90;99.90
9537;DHT22;4807;48.024;11.726;2023-04-25T13:02:57;11.70;99.90
9537;DHT22;4807;48.024;11.726;2023-04-25T13:06:06;12.10;99.90
9537;DHT22;4807;48.024;11.726;2023-04-25T13:09:14;12.20;98.10
9537;DHT22;4807;48.024;11.726;2023-04-25T13:12:24;12.00;99.40
9537;DHT22;4807;48.024;11.726;2023-04-25T13:15:34;11.90;99.80
9537;DHT22;4807;48.024;11.726;2023-04-25T13:18:43;11.20;99.90
9537;DHT22;4807;48.024;11.726;2023-04-25T13:21:51;10.00;99.90
9537;DHT22;4807;48.024;11.726;2023-04-25T13:25:00;10.00;99.90
9537;DHT22;4807;48.024;11.726;2023-04-25T13:28:10;9.90;99.90
9537;DHT22;4807;48.024;11.726;2023-04-25T13:31:18;8.90;99.90
9537;DHT22;4807;48.024;11.726;2023-04-25T13:34:26;8.90;99.90
9537;DHT22;4807;48.024;11.726;2023-04-25T13:37:34;8.80;99.90
9537;DHT22;4807;48.024;11.726;2023-04-25T13:40:42;8.80;99.90
9537;DHT22;4807;48.024;11.726;2023-04-25T13:43:52;8.70;99.90
9537;DHT22;4807;48.024;11.726;2023-04-25T13:47:01;8.50;99.90
9537;DHT22;4807;48.024;11.726;2023-04-25T13:50:10;8.40;99.90
9537;DHT22;4807;48.024;11.726;2023-04-25T13:53:18;8.50;99.90
9537;DHT22;4807;48.024;11.726;2023-04-25T13:56:28;8.00;99.90
9537;DHT22;4807;48.024;11.726;2023-04-25T13:59:37;7.60;99.90
9537;DHT22;4807;48.024;11.726;2023-04-25T14:02:47;7.90;99.90
9537;DHT22;4807;48.024;11.726;2023-04-25T14:05:56;8.10;99.90
9537;DHT22;4807;48.024;11.726;2023-04-25T14:09:05;8.00;99.90
9537;DHT22;4807;48.024;11.726;2023-04-25T14:12:14;8.00;99.90
9537;DHT22;4807;48.024;11.726;2023-04-25T14:15:24;7.90;99.90
9537;DHT22;4807;48.024;11.726;2023-04-25T14:18:32;7.70;99.90
9537;DHT22;4807;48.024;11.726;2023-04-25T14:21:40;7.60;99.90
9537;DHT22;4807;48.024;11.726;2023-04-25T14:24:49;7.50;99.90
9537;DHT22;4807;48.024;11.726;2023-04-25T14:27:57;7.60;99.90
9537;DHT22;4807;48.024;11.726;2023-04-25T14:31:07;7.50;99.90
9537;DHT22;4807;48.024;11.726;2023-04-25T14:34:15;7.20;99.90
9537;DHT22;4807;48.024;11.726;2023-04-25T14:37:23;7.20;99.90
9537;DHT22;4807;48.024;11.726;2023-04-25T14:40:31;7.10;99.90
9537;DHT22;4807;48.024;11.726;2023-04-25T14:43:40;7.30;99.90
9537;DHT22;4807;48.024;11.726;2023-04-25T14:46:50;7.40;99.90
9537;DHT22;4807;48.024;11.726;2023-04-25T14:49:58;7.40;99.90
9537;DHT22;4807;48.024;11.726;2023-04-25T14:53:08;7.20;99.90
9537;DHT22;4807;48.024;11.726;2023-04-25T14:56:16;7.30;99.90
9537;DHT22;4807;48.024;11.726;2023-04-25T14:59:25;7.50;99.90
9537;DHT22;4807;48.024;11.726;2023-04-25T15:02:35;8.00;99.90
9537;DHT22;4807;48.024;11.726;2023-04-25T15:05:44;8.30;99.90
9537;DHT22;4807;48.024;11.726;2023-04-25T15:08:52;8.90;99.90
9537;DHT22;4807;48.024;11.726;2023-04-25T15:12:00;9.30;99.90
9537;DHT22;4807;48.024;11.726;2023-04-25T15:15:10;9.20;99.90
9537;DHT22;4807;48.024;11.726;2023-04-25T15:18:33;9.00;99.90
9537;DHT22;4807;48.024;11.726;2023-04-25T15:21:41;8.10;99.90
9537;DHT22;4807;48.024;11.726;2023-04-25T15:24:50;8.10;99.90
9537;DHT22;4807;48.024;11.726;2023-04-25T15:27:58;8.00;99.90
9537;DHT22;4807;48.024;11.726;2023-04-25T15:31:07;8.00;99.90
9537;DHT22;4807;48.024;11.726;2023-04-25T15:34:17;8.10;99.90
9537;DHT22;4807;48.024;11.726;2023-04-25T15:37:25;8.20;99.90
9537;DHT22;4807;48.024;11.726;2023-04-25T15:40:34;8.30;99.90
9537;DHT22;4807;48.024;11.726;2023-04-25T15:43:42;8.40;99.90
9537;DHT22;4807;48.024;11.726;2023-04-25T15:46:51;8.50;99.90
9537;DHT22;4807;48.024;11.726;2023-04-25T15:50:03;8.50;99.90
9537;DHT22;4807;48.024;11.726;2023-04-25T15:53:13;8.60;99.90
9537;DHT22;4807;48.024;11.726;2023-04-25T15:56:21;8.60;99.90
9537;DHT22;4807;48.024;11.726;2023-04-25T15:59:29;8.60;99.90
9537;DHT22;4807;48.024;11.726;2023-04-25T16:02:38;8.50;99.90
9537;DHT22;4807;48.024;11.726;2023-04-25T16:05:49;8.40;99.90
9537;DHT22;4807;48.024;11.726;2023-04-25T16:08:58;8.20;99.90
9537;DHT22;4807;48.024;11.726;2023-04-25T16:12:09;8.10;99.90
9537;DHT22;4807;48.024;11.726;2023-04-25T16:15:18;8.20;99.90
9537;DHT22;4807;48.024;11.726;2023-04-25T16:18:26;8.20;99.90
9537;DHT22;4807;48.024;11.726;2023-04-25T16:21:37;8.40;99.90
9537;DHT22;4807;48.024;11.726;2023-04-25T16:24:47;8.50;99.90
9537;DHT22;4807;48.024;11.726;2023-04-25T16:27:55;8.70;99.90
9537;DHT22;4807;48.024;11.726;2023-04-25T16:31:03;8.80;99.90
9537;DHT22;4807;48.024;11.726;2023-04-25T16:34:13;8.50;99.90
9537;DHT22;4807;48.024;11.726;2023-04-25T16:37:24;8.40;99.90
9537;DHT22;4807;48.024;11.726;2023-04-25T16:40:32;8.10;99.90
9537;DHT22;4807;48.024;11.726;2023-04-25T16:43:41;8.00;99.90
9537;DHT22;4807;48.024;11.726;2023-04-25T16:46:49;7.90;99.90
9537;DHT22;4807;48.024;11.726;2023-04-25T16:49:59;7.90;99.90
9537;DHT22;4807;48.024;11.726;2023-04-25T16:53:09;7.80;99.90
9537;DHT22;4807;48.024;11.726;2023-04-25T16:56:17;7.70;99.90
9537;DHT22;4807;48.024;11.726;2023-04-25T16:59:25;7.70;99.90
9537;DHT22;4807;48.024;11.726;2023-04-25T17:02:33;7.70;99.90
9537;DHT22;4807;48.024;11.726;2023-04-25T17:05:42;7.60;99.90
9537;DHT22;4807;48.024;11.726;2023-04-25T17:08:52;7.60;99.90
9537;DHT22;4807;48.024;11.726;2023-04-25T17:12:02;7.60;99.90
9537;DHT22;4807;48.024;11.726;2023-04-25T17:15:10;7.60;99.90
9537;DHT22;4807;48.024;11.726;2023-04-25T17:18:19;7.50;99.90
9537;DHT22;4807;48.024;11.726;2023-04-25T17:21:30;7.40;99.90
9537;DHT22;4807;48.024;11.726;2023-04-25T17:24:40;7.40;99.90
9537;DHT22;4807;48.024;11.726;2023-04-25T17:27:48;7.30;99.90
9537;DHT22;4807;48.024;11.726;2023-04-25T17:30:57;7.20;99.90
9537;DHT22;4807;48.024;11.726;2023-04-25T17:34:05;7.20;99.90
9537;DHT22;4807;48.024;11.726;2023-04-25T17:37:15;7.20;99.90
9537;DHT22;4807;48.024;11.726;2023-04-25T17:40:25;7.20;99.90
9537;DHT22;4807;48.024;11.726;2023-04-25T17:43:34;7.10;99.90
9537;DHT22;4807;48.024;11.726;2023-04-25T17:46:43;7.00;99.90
9537;DHT22;4807;48.024;11.726;2023-04-25T17:49:51;7.00;99.90
9537;DHT22;4807;48.024;11.726;2023-04-25T17:53:00;6.90;99.90
9537;DHT22;4807;48.024;11.726;2023-04-25T17:56:11;6.90;99.90
9537;DHT22;4807;48.024;11.726;2023-04-25T17:59:33;7.00;99.90
9537;DHT22;4807;48.024;11.726;2023-04-25T18:02:42;6.90;99.90
9537;DHT22;4807;48.024;11.726;2023-04-25T18:05:51;6.70;99.90
9537;DHT22;4807;48.024;11.726;2023-04-25T18:08:59;6.80;99.90
9537;DHT22;4807;48.024;11.726;2023-04-25T18:12:10;6.80;99.90
9537;DHT22;4807;48.024;11.726;2023-04-25T18:15:20;6.80;99.90
9537;DHT22;4807;48.024;11.726;2023-04-25T18:18:29;6.60;99.90
9537;DHT22;4807;48.024;11.726;2023-04-25T18:21:40;6.70;99.90
9537;DHT22;4807;48.024;11.726;2023-04-25T18:24:49;6.70;99.90
9537;DHT22;4807;48.024;11.726;2023-04-25T18:27:59;6.70;99.90
9537;DHT22;4807;48.024;11.726;2023-04-25T18:31:07;6.70;99.90
9537;DHT22;4807;48.024;11.726;2023-04-25T18:34:17;6.60;99.90
9537;DHT22;4807;48.024;11.726;2023-04-25T18:37:26;6.00;99.90
9537;DHT22;4807;48.024;11.726;2023-04-25T18:40:35;6.60;99.90
9537;DHT22;4807;48.024;11.726;2023-04-25T18:44:03;6.60;99.90
9537;DHT22;4807;48.024;11.726;2023-04-25T18:47:13;6.50;99.90
9537;DHT22;4807;48.024;11.726;2023-04-25T18:50:22;6.50;99.90
9537;DHT22;4807;48.024;11.726;2023-04-25T18:53:32;6.70;99.90
9537;DHT22;4807;48.024;11.726;2023-04-25T18:56:40;6.80;99.90
9537;DHT22;4807;48.024;11.726;2023-04-25T18:59:50;6.70;99.90
9537;DHT22;4807;48.024;11.726;2023-04-25T19:02:58;6.60;99.90
9537;DHT22;4807;48.024;11.726;2023-04-25T19:06:10;6.40;99.90
9537;DHT22;4807;48.024;11.726;2023-04-25T19:09:18;6.40;99.90
9537;DHT22;4807;48.024;11.726;2023-04-25T19:12:26;6.20;99.90
9537;DHT22;4807;48.024;11.726;2023-04-25T19:15:36;6.00;99.90
9537;DHT22;4807;48.024;11.726;2023-04-25T19:18:45;6.00;99.90
9537;DHT22;4807;48.024;11.726;2023-04-25T19:21:54;5.80;99.90
9537;DHT22;4807;48.024;11.726;2023-04-25T19:25:03;5.70;99.90
9537;DHT22;4807;48.024;11.726;2023-04-25T19:28:16;5.50;99.90
9537;DHT22;4807;48.024;11.726;2023-04-25T19:31:26;5.40;99.90
9537;DHT22;4807;48.024;11.726;2023-04-25T19:34:34;5.40;99.90
9537;DHT22;4807;48.024;11.726;2023-04-25T19:37:43;5.40;99.90
9537;DHT22;4807;48.024;11.726;2023-04-25T19:40:52;5.40;99.90
9537;DHT22;4807;48.024;11.726;2023-04-25T19:44:01;5.30;99.90
9537;DHT22;4807;48.024;11.726;2023-04-25T19:47:14;5.20;99.90
9537;DHT22;4807;48.024;11.726;2023-04-25T19:50:22;5.30;99.90
9537;DHT22;4807;48.024;11.726;2023-04-25T19:53:31;5.20;99.90
9537;DHT22;4807;48.024;11.726;2023-04-25T19:56:39;5.20;99.90
9537;DHT22;4807;48.024;11.726;2023-04-25T19:59:48;5.30;99.90
9537;DHT22;4807;48.024;11.726;2023-04-25T20:02:58;5.20;99.90
9537;DHT22;4807;48.024;11.726;2023-04-25T20:06:07;5.20;99.90
9537;DHT22;4807;48.024;11.726;2023-04-25T20:09:15;5.20;99.90
9537;DHT22;4807;48.024;11.726;2023-04-25T20:12:24;5.10;99.90
9537;DHT22;4807;48.024;11.726;2023-04-25T20:15:32;5.10;99.90
9537;DHT22;4807;48.024;11.726;2023-04-25T20:18:42;5.20;99.90
9537;DHT22;4807;48.024;11.726;2023-04-25T20:21:50;5.20;99.90
9537;DHT22;4807;48.024;11.726;2023-04-25T20:24:59;5.20;99.90
9537;DHT22;4807;48.024;11.726;2023-04-25T20:28:07;5.30;99.90
9537;DHT22;4807;48.024;11.726;2023-04-25T20:31:15;5.30;99.90
9537;DHT22;4807;48.024;11.726;2023-04-25T20:34:25;7.60;99.90
9537;DHT22;4807;48.024;11.726;2023-04-25T20:37:35;5.30;99.90
9537;DHT22;4807;48.024;11.726;2023-04-25T20:40:44;5.20;99.90
9537;DHT22;4807;48.024;11.726;2023-04-25T20:43:52;5.30;99.90
9537;DHT22;4807;48.024;11.726;2023-04-25T20:47:01;5.20;99.90